Time;durP1;ratioP1;P1;durP2;ratioP2;P2;SDS_P1;SDS_P2;PMS_P1;PMS_P2;Temp;Humidity;BMP_temperature;BMP_pressure;BME280_temperature;BME280_humidity;BME280_pressure;Samples;Min_cycle;Max_cycle;Signal;HPM_P1;HPM_P2
2022/09/17 00:01:06;;;;;;;8.95;1.73;;;;;;;14.34;61.31;99176.28;5114456;28;20456;-60
2022/09/17 00:03:33;;;;;;;9.52;2.00;;;;;;;14.34;61.36;99176.28;5114414;28;20055;-60
2022/09/17 00:06:02;;;;;;;7.03;1.80;;;;;;;14.34;61.50;99178.91;5114800;28;20052;-60
2022/09/17 00:08:29;;;;;;;5.38;1.63;;;;;;;14.36;61.40;99173.50;5113344;28;20127;-61
2022/09/17 00:10:56;;;;;;;8.73;1.88;;;;;;;14.36;61.40;99174.34;5114548;28;20078;-60
2022/09/17 00:13:23;;;;;;;11.32;2.00;;;;;;;14.38;61.29;99185.66;5114481;28;20056;-60
2022/09/17 00:15:51;;;;;;;9.88;2.00;;;;;;;14.39;61.41;99182.03;5113293;28;20075;-61
2022/09/17 00:18:18;;;;;;;7.40;1.70;;;;;;;14.40;61.31;99191.69;5112653;28;20063;-62
2022/09/17 00:20:46;;;;;;;11.27;1.90;;;;;;;14.41;61.44;99192.50;5114394;28;20495;-60
2022/09/17 00:23:13;;;;;;;8.57;1.85;;;;;;;14.42;61.35;99188.88;5114260;28;20116;-60
2022/09/17 00:25:42;;;;;;;11.95;2.00;;;;;;;14.42;61.52;99188.88;5114303;28;20083;-61
2022/09/17 00:28:09;;;;;;;12.55;2.03;;;;;;;14.42;61.27;99187.06;5113800;28;20138;-61
2022/09/17 00:30:39;;;;;;;13.35;2.60;;;;;;;14.41;61.61;99190.69;5112649;28;20051;-60
2022/09/17 00:40:40;;;;;;;12.88;2.13;;;;;;;14.40;60.45;99194.31;5114355;28;20058;-61
2022/09/17 00:43:11;;;;;;;11.73;2.72;;;;;;;14.34;61.13;99197.47;5114112;28;20047;-60
2022/09/17 00:45:37;;;;;;;8.73;1.83;;;;;;;14.31;60.65;99203.00;5113907;28;20094;-60
2022/09/17 00:48:06;;;;;;;7.72;1.67;;;;;;;14.28;60.64;99201.44;5112884;28;20640;-60
2022/09/17 00:50:39;;;;;;;10.68;1.92;;;;;;;14.21;62.20;99208.22;5113705;28;20051;-61
2022/09/17 00:53:10;;;;;;;;;;;;;;;14.20;61.21;99207.38;5114336;28;20108;-60
2022/09/17 00:55:44;;;;;;;9.23;1.58;;;;;;;14.18;61.44;99206.66;5112384;28;19974;-61
2022/09/17 00:58:13;;;;;;;11.10;2.20;;;;;;;14.17;60.85;99199.66;5111993;28;20100;-61
2022/09/17 01:00:40;;;;;;;9.70;1.88;;;;;;;14.14;61.00;99213.19;5112148;28;20048;-59
2022/09/17 01:03:11;;;;;;;11.40;2.33;;;;;;;14.11;61.11;99217.84;5113351;28;20075;-60
2022/09/17 01:05:46;;;;;;;10.40;2.38;;;;;;;14.05;61.82;99208.59;5112295;28;20048;-60
2022/09/17 01:12:26;;;;;;;7.57;1.52;;;;;;;14.00;61.60;99218.72;5113238;28;20164;-60
2022/09/17 01:15:11;;;;;;;14.15;2.20;;;;;;;13.98;60.93;99207.44;5093114;28;20130;-61
2022/09/17 01:18:17;;;;;;;8.40;1.95;;;;;;;13.90;62.23;99211.53;5113133;28;20058;-60
2022/09/17 01:21:19;;;;;;;14.40;3.15;;;;;;;13.88;61.87;99202.88;5106156;28;20480;-60
2022/09/17 01:24:33;;;;;;;12.50;2.25;;;;;;;13.87;62.08;99195.88;5113007;28;20138;-60
2022/09/17 01:27:15;;;;;;;12.63;2.60;;;;;;;13.88;61.33;99200.22;5113247;28;20056;-60
2022/09/17 01:30:00;;;;;;;9.70;2.88;;;;;;;13.87;60.69;99203.81;5112843;28;20138;-60
2022/09/17 01:32:44;;;;;;;10.55;1.95;;;;;;;13.79;61.78;99206.22;5112989;28;20087;-61
2022/09/17 01:35:19;;;;;;;10.90;2.25;;;;;;;13.75;61.37;99215.41;5112796;28;20093;-60
2022/09/17 01:38:10;;;;;;;7.60;1.75;;;;;;;13.66;61.78;99214.31;5113323;28;20097;-61
2022/09/17 01:40:52;;;;;;;12.82;2.75;;;;;;;13.60;61.41;99215.63;5107422;28;20048;-60
2022/09/17 01:43:33;;;;;;;6.05;1.92;;;;;;;13.52;62.36;99213.59;5112627;28;20094;-61
2022/09/17 01:46:19;;;;;;;8.73;2.50;;;;;;;13.45;62.14;99217.63;5112741;28;20130;-60
2022/09/17 01:48:50;;;;;;;10.40;1.80;;;;;;;13.43;61.10;99219.56;5112498;28;20040;-60
2022/09/17 01:51:25;;;;;;;10.65;2.58;;;;;;;13.36;61.78;99229.78;5112622;28;20188;-60
2022/09/17 01:54:03;;;;;;;9.88;2.05;;;;;;;13.32;61.71;99220.41;5112668;28;20126;-62
2022/09/17 01:56:37;;;;;;;11.13;2.25;;;;;;;13.29;61.45;99223.28;5112489;28;20086;-61
2022/09/17 01:59:13;;;;;;;13.13;2.28;;;;;;;13.23;61.52;99229.06;5112143;28;20135;-63
2022/09/17 02:01:42;;;;;;;9.50;2.40;;;;;;;13.20;61.29;99229.28;5112069;28;20540;-60
2022/09/17 02:04:43;;;;;;;14.60;2.50;;;;;;;13.09;61.96;99228.28;5112175;28;20105;-60
2022/09/17 02:07:19;;;;;;;12.80;2.50;;;;;;;13.09;61.36;99236.19;5112383;28;20123;-60
2022/09/17 02:09:54;;;;;;;11.15;2.00;;;;;;;13.04;61.32;99230.44;5111965;28;20135;-61
2022/09/17 02:12:27;;;;;;;13.48;2.10;;;;;;;13.01;61.29;99233.34;5111017;28;20496;-60
2022/09/17 02:14:57;;;;;;;15.65;2.58;;;;;;;12.96;61.27;99222.25;5112025;28;20055;-60
2022/09/17 02:17:28;;;;;;;13.38;2.05;;;;;;;12.91;61.54;99227.91;5111997;28;20616;-60
2022/09/17 02:19:55;;;;;;;14.18;2.42;;;;;;;12.89;60.93;99225.38;5110524;28;20543;-60
2022/09/17 02:22:27;;;;;;;16.95;2.55;;;;;;;12.84;61.31;99219.59;5111835;28;20499;-60
2022/09/17 02:25:06;;;;;;;8.27;2.08;;;;;;;12.84;60.81;99230.16;5111779;28;20511;-62
2022/09/17 02:27:51;;;;;;;14.93;2.50;;;;;;;12.77;61.66;99226.28;5111985;28;20511;-60
2022/09/17 02:30:17;;;;;;;16.75;2.65;;;;;;;12.78;60.79;99220.03;5111550;28;20079;-59
2022/09/17 02:32:45;;;;;;;17.55;2.75;;;;;;;12.75;60.78;99220.28;5112052;28;20134;-60
2022/09/17 02:35:13;;;;;;;16.75;2.50;;;;;;;12.71;60.87;99214.38;5111680;28;20086;-62
2022/09/17 02:37:46;;;;;;;12.63;2.60;;;;;;;12.67;61.27;99217.38;5110641;28;20090;-61
2022/09/17 02:40:15;;;;;;;7.90;1.90;;;;;;;12.67;60.82;99220.00;5111433;28;20118;-60
2022/09/17 02:43:12;;;;;;;15.77;2.45;;;;;;;12.58;61.99;99224.16;5111530;28;20056;-60
2022/09/17 02:46:02;;;;;;;12.80;2.70;;;;;;;12.57;61.35;99228.63;5110101;28;20085;-60
2022/09/17 02:48:38;;;;;;;12.90;2.33;;;;;;;12.54;61.52;99235.91;5111627;28;20126;-59
2022/09/17 02:51:17;;;;;;;10.57;2.20;;;;;;;12.51;61.36;99232.56;5111431;28;20207;-60
2022/09/17 02:54:09;;;;;;;12.10;2.20;;;;;;;12.45;61.62;99232.97;5111163;28;20130;-59
2022/09/17 02:56:42;;;;;;;10.30;2.13;;;;;;;12.46;60.68;99241.75;5111498;28;20098;-60
2022/09/17 02:59:18;;;;;;;;;;;;;;;12.42;60.97;99238.50;5111629;28;20086;-60
2022/09/17 03:01:58;;;;;;;8.70;2.28;;;;;;;12.42;60.96;99240.31;5109991;28;19978;-61
2022/09/17 03:04:28;;;;;;;11.85;2.45;;;;;;;12.41;60.78;99243.91;5111174;28;20052;-60
2022/09/17 03:06:55;;;;;;;9.50;1.88;;;;;;;12.37;60.73;99237.97;5111570;28;20094;-60
2022/09/17 03:09:22;;;;;;;12.57;2.42;;;;;;;12.35;60.79;99242.53;5109768;28;20097;-61
2022/09/17 03:11:48;;;;;;;7.25;1.90;;;;;;;12.32;60.84;99240.97;5110990;28;20432;-60
2022/09/17 03:14:15;;;;;;;14.80;1.85;;;;;;;12.31;60.92;99247.22;5111081;28;20082;-59
2022/09/17 03:16:41;;;;;;;9.95;2.45;;;;;;;12.29;60.98;99246.47;5111000;28;20126;-60
2022/09/17 03:19:08;;;;;;;10.02;2.88;;;;;;;12.27;60.75;99242.25;5110759;28;20091;-60
2022/09/17 03:21:34;;;;;;;12.18;2.75;;;;;;;12.25;60.90;99237.09;5111139;28;20134;-61
2022/09/17 03:24:01;;;;;;;12.57;2.25;;;;;;;12.24;60.99;99248.59;5110741;28;20052;-60
2022/09/17 03:26:28;;;;;;;15.18;2.47;;;;;;;12.22;61.09;99238.16;5109680;28;20051;-61
2022/09/17 03:28:54;;;;;;;11.05;2.15;;;;;;;12.21;61.04;99244.38;5111225;28;20090;-60
2022/09/17 03:31:21;;;;;;;9.88;2.30;;;;;;;12.19;60.99;99243.66;5110876;28;20117;-59
2022/09/17 03:33:48;;;;;;;17.02;2.42;;;;;;;12.19;60.93;99246.28;5111254;28;20043;-59
2022/09/17 03:36:15;;;;;;;13.00;2.03;;;;;;;12.18;60.97;99247.25;5110966;28;20051;-60
2022/09/17 03:38:42;;;;;;;12.60;2.72;;;;;;;12.17;61.37;99250.00;5110703;28;20087;-61
2022/09/17 03:41:08;;;;;;;12.50;2.80;;;;;;;12.17;61.08;99252.63;5110592;28;20407;-60
2022/09/17 03:43:35;;;;;;;12.38;2.17;;;;;;;12.16;61.18;99253.59;5110875;28;20056;-59
2022/09/17 03:46:01;;;;;;;9.85;1.80;;;;;;;12.14;61.10;99261.59;5110669;28;20437;-60
2022/09/17 03:48:29;;;;;;;14.98;2.63;;;;;;;12.13;61.15;99252.00;5111008;28;20047;-62
2022/09/17 03:50:55;;;;;;;14.73;2.97;;;;;;;12.13;61.38;99257.28;5109594;28;20043;-59
2022/09/17 03:53:22;;;;;;;10.05;2.72;;;;;;;12.11;61.36;99257.41;5110768;28;20123;-61
2022/09/17 03:55:49;;;;;;;8.20;2.35;;;;;;;12.11;61.44;99259.19;5110695;28;20090;-60
2022/09/17 03:58:16;;;;;;;11.30;2.38;;;;;;;12.12;61.52;99255.63;5110474;28;20043;-60
2022/09/17 04:00:42;;;;;;;13.25;2.83;;;;;;;12.12;61.45;99256.44;5110416;28;20056;-62
2022/09/17 04:03:09;;;;;;;8.48;1.80;;;;;;;12.13;61.54;99262.56;5110662;28;20479;-60
2022/09/17 04:05:36;;;;;;;12.68;2.72;;;;;;;12.15;61.65;99263.28;5110570;28;20131;-60
2022/09/17 04:08:02;;;;;;;11.70;2.15;;;;;;;12.16;61.49;99265.00;5109356;28;20083;-60
2022/09/17 04:10:29;;;;;;;10.75;2.22;;;;;;;12.17;61.41;99258.75;5109243;28;20127;-60
2022/09/17 04:12:55;;;;;;;9.90;1.85;;;;;;;12.16;61.33;99267.63;5110486;28;20098;-60
2022/09/17 04:15:22;;;;;;;8.88;2.00;;;;;;;12.15;61.18;99267.75;5110732;28;20090;-60
2022/09/17 04:17:48;;;;;;;13.65;2.72;;;;;;;12.14;61.09;99268.69;5110823;28;20135;-60
2022/09/17 04:20:15;;;;;;;13.27;2.30;;;;;;;12.10;61.02;99266.28;5110354;28;20118;-60
2022/09/17 04:22:41;;;;;;;11.32;1.73;;;;;;;12.07;61.13;99277.03;5110621;28;20130;-62
2022/09/17 04:25:09;;;;;;;10.10;2.05;;;;;;;12.07;61.11;99278.84;5114055;28;20097;-60
2022/09/17 04:27:36;;;;;;;11.65;1.92;;;;;;;12.04;61.32;99274.56;5112779;28;20529;-60
2022/09/17 04:30:03;;;;;;;10.27;2.17;;;;;;;12.03;61.45;99274.72;5113815;28;20054;-60
2022/09/17 04:32:29;;;;;;;12.18;2.25;;;;;;;12.03;61.18;99274.72;5114238;28;20083;-60
2022/09/17 04:34:56;;;;;;;7.93;1.83;;;;;;;12.01;61.05;99281.88;5114069;28;20059;-60
2022/09/17 04:37:24;;;;;;;10.88;1.88;;;;;;;11.98;61.49;99275.88;5114039;28;20138;-59
2022/09/17 04:39:51;;;;;;;11.57;2.17;;;;;;;11.98;61.59;99270.59;5113668;28;20138;-60
2022/09/17 04:42:18;;;;;;;12.13;2.80;;;;;;;11.98;61.67;99283.78;5114135;28;20057;-60
2022/09/17 04:44:44;;;;;;;11.60;2.33;;;;;;;12.01;61.48;99284.50;5113832;28;20130;-60
2022/09/17 04:47:11;;;;;;;10.90;2.10;;;;;;;12.01;61.49;99280.09;5114031;28;20126;-60
2022/09/17 04:49:37;;;;;;;12.60;2.40;;;;;;;12.02;61.54;99276.50;5113690;28;20158;-60
2022/09/17 04:52:04;;;;;;;10.70;1.70;;;;;;;12.03;61.22;99279.97;5113762;28;20459;-60
2022/09/17 04:54:30;;;;;;;11.50;2.40;;;;;;;12.01;61.25;99277.44;5113694;28;20545;-60
2022/09/17 04:56:58;;;;;;;8.82;1.92;;;;;;;11.99;61.40;99276.69;5113727;28;20139;-60
2022/09/17 04:59:24;;;;;;;6.72;1.63;;;;;;;11.97;61.35;99276.81;5113445;28;20052;-60
2022/09/17 05:01:51;;;;;;;7.72;1.70;;;;;;;11.96;61.35;99277.75;5113466;28;20480;-60
2022/09/17 05:04:18;;;;;;;19.48;2.85;;;;;;;11.96;61.42;99276.94;5113512;28;20047;-61
2022/09/17 05:06:44;;;;;;;9.90;2.17;;;;;;;11.96;61.47;99277.75;5113518;28;20530;-60
2022/09/17 05:09:11;;;;;;;7.22;1.70;;;;;;;11.95;61.47;99275.22;5113137;28;20048;-60
2022/09/17 05:11:37;;;;;;;9.75;1.75;;;;;;;11.96;61.58;99274.31;5113504;28;20047;-60
2022/09/17 05:14:04;;;;;;;10.50;2.30;;;;;;;11.97;61.56;99284.72;5113416;28;20085;-61
2022/09/17 05:16:30;;;;;;;9.85;1.85;;;;;;;11.97;61.43;99282.06;5113186;28;20108;-60
2022/09/17 05:18:57;;;;;;;9.00;2.05;;;;;;;11.97;61.34;99279.44;5113456;28;20051;-62
2022/09/17 05:21:24;;;;;;;8.75;2.00;;;;;;;11.97;61.26;99286.53;5112940;28;20055;-60
2022/09/17 05:23:50;;;;;;;6.72;1.80;;;;;;;11.96;61.27;99292.75;5112856;28;20087;-60
2022/09/17 05:26:17;;;;;;;6.75;1.55;;;;;;;11.95;61.28;99301.59;5113414;28;20221;-59
2022/09/17 05:28:43;;;;;;;9.13;1.88;;;;;;;11.94;61.22;99289.38;5113017;28;20130;-60
2022/09/17 05:31:10;;;;;;;8.63;1.80;;;;;;;11.95;61.30;99298.97;5112849;28;20526;-61
2022/09/17 05:33:36;;;;;;;7.40;1.60;;;;;;;11.94;61.12;99292.88;5112891;28;20499;-61
2022/09/17 05:36:03;;;;;;;10.10;2.10;;;;;;;11.94;61.27;99300.78;5112907;28;20054;-59
2022/09/17 05:38:30;;;;;;;6.78;1.48;;;;;;;11.94;61.29;99299.94;5111341;28;20494;-59
2022/09/17 05:40:56;;;;;;;8.70;2.30;;;;;;;11.95;61.35;99298.97;5112574;28;20060;-61
2022/09/17 05:43:23;;;;;;;12.07;2.95;;;;;;;11.97;61.39;99307.63;5112790;28;20123;-60
2022/09/17 05:45:49;;;;;;;12.93;1.80;;;;;;;11.98;61.44;99304.03;5111533;28;20083;-60
2022/09/17 05:48:16;;;;;;;10.07;1.55;;;;;;;12.01;61.53;99295.91;5112372;28;20142;-60
2022/09/17 05:50:42;;;;;;;10.18;1.63;;;;;;;12.04;61.43;99308.03;5112215;28;20089;-62
2022/09/17 05:53:11;;;;;;;8.77;1.70;;;;;;;12.04;61.76;99306.22;5112506;28;20079;-59
2022/09/17 05:55:38;;;;;;;6.15;1.55;;;;;;;12.07;61.47;99300.78;5111314;28;20048;-60
2022/09/17 05:58:12;;;;;;;9.45;1.90;;;;;;;12.07;62.15;99306.06;5112297;28;20138;-61
2022/09/17 06:00:40;;;;;;;9.73;2.10;;;;;;;12.12;61.63;99303.94;5111227;28;20078;-61
2022/09/17 06:03:09;;;;;;;7.32;1.52;;;;;;;12.15;61.61;99310.78;5111234;28;20079;-60
2022/09/17 06:05:36;;;;;;;8.88;2.05;;;;;;;12.19;61.35;99319.34;5112252;28;20499;-60
2022/09/17 06:08:02;;;;;;;4.45;1.40;;;;;;;12.19;61.31;99322.81;5112071;28;20491;-59
2022/09/17 06:10:29;;;;;;;8.30;1.45;;;;;;;12.19;61.16;99327.25;5112503;28;20055;-62
2022/09/17 06:12:59;;;;;;;8.30;1.95;;;;;;;12.20;61.15;99335.06;5112194;28;20579;-59
2022/09/17 06:15:26;;;;;;;8.25;1.48;;;;;;;12.19;61.23;99329.91;5112065;28;20559;-60
2022/09/17 06:17:53;;;;;;;7.03;1.88;;;;;;;12.19;61.16;99337.81;5111964;28;20051;-60
2022/09/17 06:20:20;;;;;;;9.38;1.73;;;;;;;12.19;60.93;99337.81;5111883;28;20130;-59
2022/09/17 06:22:46;;;;;;;8.43;1.50;;;;;;;12.18;61.44;99339.59;5111710;28;20510;-59
2022/09/17 06:25:13;;;;;;;7.82;1.90;;;;;;;12.18;61.29;99341.41;5111971;28;20166;-59
2022/09/17 06:27:40;;;;;;;7.68;1.75;;;;;;;12.19;61.28;99345.72;5110491;28;20101;-59
2022/09/17 06:30:07;;;;;;;8.10;1.92;;;;;;;12.18;61.34;99342.22;5111896;28;20131;-59
2022/09/17 06:32:33;;;;;;;8.73;1.60;;;;;;;12.20;61.62;99342.13;5111815;28;20090;-61
2022/09/17 06:35:00;;;;;;;11.32;2.10;;;;;;;12.21;61.69;99351.72;5111749;28;20542;-59
2022/09/17 06:37:29;;;;;;;7.40;1.40;;;;;;;12.23;61.53;99349.84;5111876;28;20100;-61
2022/09/17 06:39:56;;;;;;;8.80;1.88;;;;;;;12.25;61.69;99355.84;5110387;28;20051;-60
2022/09/17 06:42:23;;;;;;;8.43;1.77;;;;;;;12.28;61.83;99358.25;5111606;28;20047;-60
2022/09/17 06:44:49;;;;;;;3.45;1.35;;;;;;;12.33;61.75;99352.66;5111572;28;20142;-60
2022/09/17 06:47:16;;;;;;;10.70;1.83;;;;;;;12.37;61.92;99354.13;5110967;28;20545;-60
2022/09/17 06:49:42;;;;;;;7.10;1.60;;;;;;;12.42;61.88;99359.06;5111459;28;20086;-60
2022/09/17 06:52:09;;;;;;;8.25;1.63;;;;;;;12.47;61.95;99354.31;5111529;28;20049;-59
2022/09/17 06:54:36;;;;;;;10.18;2.28;;;;;;;12.49;62.02;99350.59;5111287;28;20134;-60
2022/09/17 06:57:03;;;;;;;10.45;2.30;;;;;;;12.54;61.82;99349.44;5111433;28;20094;-59
2022/09/17 06:59:29;;;;;;;8.02;1.92;;;;;;;12.56;61.47;99344.91;5111045;28;20048;-60
2022/09/17 07:01:56;;;;;;;8.15;2.20;;;;;;;12.58;61.42;99348.25;5111591;28;20142;-58
2022/09/17 07:04:23;;;;;;;9.68;2.00;;;;;;;12.58;61.53;99346.47;5111385;28;20062;-58
2022/09/17 07:06:49;;;;;;;11.00;2.30;;;;;;;12.60;61.41;99346.38;5111227;28;20083;-59
2022/09/17 07:09:16;;;;;;;9.63;1.35;;;;;;;12.62;61.37;99355.00;5111107;28;20135;-59
2022/09/17 07:11:42;;;;;;;8.48;1.45;;;;;;;12.65;61.30;99357.44;5111064;28;20055;-60
2022/09/17 07:14:09;;;;;;;8.10;1.42;;;;;;;12.68;61.42;99351.09;5111096;28;20126;-59
2022/09/17 07:16:35;;;;;;;9.75;1.80;;;;;;;12.70;61.30;99347.38;5111262;28;20090;-60
2022/09/17 07:19:03;;;;;;;9.43;1.70;;;;;;;12.73;61.42;99356.88;5110428;28;20048;-60
2022/09/17 07:21:30;;;;;;;13.05;2.40;;;;;;;12.77;61.34;99350.41;5111025;28;20079;-60
2022/09/17 07:23:57;;;;;;;8.05;1.75;;;;;;;12.82;61.29;99356.19;5110802;28;20095;-62
2022/09/17 07:26:24;;;;;;;10.38;1.80;;;;;;;12.86;61.37;99360.31;5109683;28;20047;-59
2022/09/17 07:28:50;;;;;;;13.40;1.88;;;;;;;12.92;61.32;99366.09;5111140;28;20471;-59
2022/09/17 07:31:17;;;;;;;5.75;1.92;;;;;;;12.98;60.97;99368.28;5110873;28;20135;-62
2022/09/17 07:33:44;;;;;;;10.38;1.95;;;;;;;13.03;60.88;99360.88;5111087;28;20048;-60
2022/09/17 07:36:13;;;;;;;8.45;1.85;;;;;;;13.10;60.76;99362.09;5110293;28;20048;-59
2022/09/17 07:38:40;;;;;;;11.02;1.60;;;;;;;13.16;60.78;99359.00;5110935;28;20047;-59
2022/09/17 07:41:13;;;;;;;10.25;1.95;;;;;;;13.21;60.52;99357.81;5110035;28;20086;-59
2022/09/17 07:43:40;;;;;;;6.95;1.80;;;;;;;13.28;60.45;99354.59;5111053;28;20143;-61
2022/09/17 07:46:12;;;;;;;11.07;2.45;;;;;;;13.34;60.44;99353.28;5109719;28;20138;-59
2022/09/17 07:48:39;;;;;;;7.65;2.28;;;;;;;13.45;60.52;99349.00;5110663;28;20059;-62
2022/09/17 07:51:06;;;;;;;7.22;1.60;;;;;;;13.53;60.46;99355.41;5110466;28;20044;-60
2022/09/17 07:53:33;;;;;;;7.13;1.73;;;;;;;13.62;60.41;99360.97;5110732;28;20087;-59
2022/09/17 07:56:00;;;;;;;9.98;1.65;;;;;;;13.71;60.21;99357.59;5110252;28;20095;-60
2022/09/17 07:58:35;;;;;;;7.13;1.75;;;;;;;13.78;59.79;99355.34;5111309;28;20475;-59
2022/09/17 08:01:07;;;;;;;7.20;1.42;;;;;;;13.86;58.21;99371.47;5113828;28;20079;-61
2022/09/17 08:03:35;;;;;;;5.45;1.05;;;;;;;13.94;58.71;99369.06;5113157;28;20047;-59
2022/09/17 08:06:10;;;;;;;9.27;1.75;;;;;;;13.94;57.72;99360.28;5112252;28;20079;-59
2022/09/17 08:08:38;;;;;;;5.00;1.17;;;;;;;13.97;58.16;99361.88;5112880;28;20130;-59
2022/09/17 08:11:07;;;;;;;8.27;1.45;;;;;;;13.98;57.74;99355.59;5113990;28;20100;-59
2022/09/17 08:13:34;;;;;;;4.35;1.20;;;;;;;13.97;58.02;99361.88;5114009;28;20083;-60
2022/09/17 08:16:04;;;;;;;8.00;1.65;;;;;;;13.98;57.90;99360.91;5112067;28;20090;-59
2022/09/17 08:18:31;;;;;;;10.00;1.30;;;;;;;13.98;57.76;99368.84;5113360;28;20457;-59
2022/09/17 08:20:59;;;;;;;7.70;1.65;;;;;;;13.99;57.61;99367.88;5113357;28;20463;-60
2022/09/17 08:23:27;;;;;;;8.27;1.85;;;;;;;14.01;57.91;99360.63;5113264;28;20473;-62
2022/09/17 08:25:54;;;;;;;4.25;1.17;;;;;;;14.03;58.17;99367.53;5113530;28;20143;-60
2022/09/17 08:28:24;;;;;;;5.63;0.80;;;;;;;14.06;57.61;99358.50;5113337;28;20051;-58
2022/09/17 08:30:51;;;;;;;7.28;1.08;;;;;;;14.09;57.28;99363.53;5114135;28;20104;-60
2022/09/17 08:33:19;;;;;;;6.93;1.63;;;;;;;14.12;57.45;99358.00;5113066;28;20047;-59
2022/09/17 08:35:53;;;;;;;5.95;1.40;;;;;;;14.12;57.17;99358.00;5113069;28;20055;-59
2022/09/17 08:38:20;;;;;;;6.75;1.65;;;;;;;14.18;57.24;99354.91;5113871;28;20348;-58
2022/09/17 08:40:59;;;;;;;8.48;1.35;;;;;;;14.17;56.91;99350.53;5114163;28;20146;-59
2022/09/17 08:43:27;;;;;;;6.07;1.08;;;;;;;14.25;57.22;99362.34;5113848;28;20083;-60
2022/09/17 08:45:54;;;;;;;3.58;0.90;;;;;;;14.30;57.31;99360.16;5113846;28;20088;-59
2022/09/17 08:48:22;;;;;;;4.18;1.13;;;;;;;14.33;57.44;99366.03;5113695;28;20142;-60
2022/09/17 08:50:50;;;;;;;7.00;1.38;;;;;;;14.38;57.33;99360.41;5113950;28;20051;-60
2022/09/17 08:53:33;;;;;;;5.85;1.50;;;;;;;14.39;56.66;99358.59;5113778;28;20098;-60
2022/09/17 08:56:11;;;;;;;;;;;;;;;14.45;57.15;99364.25;5114662;28;20058;-60
2022/09/17 08:59:04;;;;;;;3.67;0.93;;;;;;;14.53;56.25;99368.94;5113401;28;20010;-59
2022/09/17 09:01:56;;;;;;;5.57;1.30;;;;;;;14.54;55.96;99361.84;5113853;28;20482;-59
2022/09/17 09:05:09;;;;;;;4.88;1.27;;;;;;;14.56;56.36;99366.03;5113519;28;20058;-59
2022/09/17 09:07:42;;;;;;;4.05;0.98;;;;;;;14.63;56.19;99370.84;5070281;28;20136;-59
2022/09/17 09:10:17;;;;;;;5.10;1.08;;;;;;;14.65;56.27;99363.63;5106819;28;20091;-59
2022/09/17 09:12:44;;;;;;;7.47;1.90;;;;;;;14.70;56.76;99372.03;5112052;28;20048;-59
2022/09/17 09:15:32;;;;;;;9.75;1.38;;;;;;;14.72;56.92;99359.50;5113522;28;20461;-60
2022/09/17 09:18:08;;;;;;;8.82;1.58;;;;;;;14.83;56.57;99369.25;5113420;28;20099;-59
2022/09/17 09:20:52;;;;;;;7.57;1.45;;;;;;;14.90;56.60;99366.94;5111944;28;20518;-59
2022/09/17 09:23:18;;;;;;;3.83;1.10;;;;;;;15.01;56.62;99368.72;5113013;28;20087;-59
2022/09/17 09:26:14;;;;;;;14.55;1.40;;;;;;;15.07;56.56;99355.78;5113195;28;20495;-59
2022/09/17 09:28:49;;;;;;;6.75;1.30;;;;;;;15.21;55.91;99367.91;5113033;28;20510;-57
2022/09/17 09:31:28;;;;;;;4.97;1.15;;;;;;;15.33;55.87;99375.84;5113065;28;20491;-59
2022/09/17 09:33:55;;;;;;;6.50;1.20;;;;;;;15.47;56.34;99380.81;5113401;28;20059;-59
2022/09/17 09:36:21;;;;;;;7.38;1.67;;;;;;;15.60;56.01;99372.69;5111977;28;20146;-61
2022/09/17 09:38:56;;;;;;;5.63;1.25;;;;;;;15.71;55.54;99365.59;5112804;28;20090;-59
2022/09/17 09:41:39;;;;;;;6.82;1.42;;;;;;;15.79;53.16;99365.78;5113019;28;20079;-59
2022/09/17 09:44:11;;;;;;;4.28;1.13;;;;;;;15.89;53.50;99361.38;5112798;28;20154;-59
2022/09/17 09:46:59;;;;;;;4.63;1.10;;;;;;;15.94;53.59;99366.34;5112958;28;20134;-59
2022/09/17 09:49:45;;;;;;;4.28;1.08;;;;;;;16.00;53.60;99359.66;5112504;28;20059;-59
2022/09/17 09:52:50;;;;;;;7.10;1.40;;;;;;;16.07;53.88;99347.50;5112666;28;20094;-59
2022/09/17 09:55:42;;;;;;;9.63;1.60;;;;;;;16.21;54.29;99382.63;5103274;28;20138;-59
2022/09/17 09:58:40;;;;;;;4.28;1.05;;;;;;;16.26;53.53;99375.97;5105309;28;20139;-59
2022/09/17 10:01:15;;;;;;;4.32;1.35;;;;;;;16.25;53.27;99360.16;5112516;28;20168;-61
2022/09/17 10:03:44;;;;;;;4.13;1.00;;;;;;;16.17;53.51;99363.50;5111237;28;20108;-59
2022/09/17 10:06:13;;;;;;;4.28;1.17;;;;;;;16.06;54.16;99364.41;5111359;28;20054;-59
2022/09/17 10:08:49;;;;;;;3.15;1.10;;;;;;;15.94;55.35;99361.03;5112170;28;20488;-59
2022/09/17 10:11:20;;;;;;;4.20;0.95;;;;;;;15.96;55.60;99369.69;5112062;28;20043;-59
2022/09/17 10:13:47;;;;;;;4.32;1.30;;;;;;;15.95;55.70;99357.38;5111061;28;20051;-60
2022/09/17 10:16:20;;;;;;;4.78;0.90;;;;;;;15.99;55.13;99360.59;5112247;28;20058;-57
2022/09/17 10:18:50;;;;;;;5.35;0.70;;;;;;;16.04;54.86;99360.22;5111900;28;20052;-60
2022/09/17 10:21:31;;;;;;;2.13;0.80;;;;;;;16.04;55.31;99358.41;5110062;28;20047;-61
2022/09/17 10:24:00;;;;;;;2.63;0.80;;;;;;;16.13;55.03;99362.06;5111804;28;20095;-59
2022/09/17 10:26:36;;;;;;;3.63;0.98;;;;;;;16.15;54.46;99363.63;5112291;28;20158;-60
2022/09/17 10:29:15;;;;;;;3.00;0.90;;;;;;;16.23;54.10;99368.25;5110550;28;20120;-61
2022/09/17 10:31:52;;;;;;;7.00;0.73;;;;;;;16.31;54.66;99361.44;5111958;28;20047;-59
2022/09/17 10:34:25;;;;;;;7.05;0.80;;;;;;;16.41;54.78;99349.88;5111766;28;20131;-58
2022/09/17 10:36:54;;;;;;;3.17;0.70;;;;;;;16.52;54.77;99375.47;5112061;28;20436;-59
2022/09/17 10:39:27;;;;;;;2.83;0.77;;;;;;;16.61;54.37;99368.53;5111826;28;20449;-57
2022/09/17 10:41:55;;;;;;;2.63;0.73;;;;;;;16.71;54.15;99365.88;5111801;28;20055;-60
2022/09/17 10:44:24;;;;;;;3.30;0.90;;;;;;;16.79;52.96;99360.72;5111361;28;20587;-59
2022/09/17 10:46:51;;;;;;;2.40;0.60;;;;;;;16.88;52.64;99352.88;5111252;28;20491;-59
2022/09/17 10:49:36;;;;;;;4.93;0.88;;;;;;;16.95;53.27;99354.03;5111583;28;20048;-58
2022/09/17 10:52:16;;;;;;;5.25;1.05;;;;;;;17.06;52.81;99347.75;5111698;28;20154;-59
2022/09/17 10:55:04;;;;;;;2.53;0.75;;;;;;;17.19;52.66;99347.47;5110441;28;20154;-57
2022/09/17 10:58:04;;;;;;;3.67;0.88;;;;;;;17.34;52.08;99344.41;5111268;28;20077;-59
2022/09/17 11:00:37;;;;;;;5.85;1.27;;;;;;;17.53;52.18;99339.03;5111113;28;20085;-59
2022/09/17 11:03:34;;;;;;;6.13;1.00;;;;;;;17.72;52.22;99334.66;5111330;28;20504;-62
2022/09/17 11:06:07;;;;;;;3.55;0.93;;;;;;;18.04;54.18;99338.75;5111184;28;20455;-58
2022/09/17 11:08:42;;;;;;;6.55;1.08;;;;;;;18.39;51.93;99330.19;5110725;28;20055;-60
2022/09/17 11:11:31;;;;;;;2.80;0.70;;;;;;;18.70;50.41;99333.38;5111178;28;20090;-59
2022/09/17 11:14:26;;;;;;;1.88;0.90;;;;;;;19.01;47.23;99313.47;5109864;28;20126;-59
2022/09/17 11:17:06;;;;;;;7.38;1.38;;;;;;;19.26;47.03;99317.22;5111315;28;20127;-60
2022/09/17 11:19:58;;;;;;;2.95;0.70;;;;;;;19.52;49.45;99315.56;5110440;28;20043;-59
2022/09/17 11:22:43;;;;;;;1.55;0.65;;;;;;;19.87;49.45;99319.13;5111281;28;20090;-59
2022/09/17 11:25:15;;;;;;;3.38;1.10;;;;;;;20.24;46.92;99322.47;5111202;28;20495;-59
2022/09/17 11:28:03;;;;;;;4.22;0.95;;;;;;;20.53;46.67;99323.88;5111059;28;20105;-62
2022/09/17 11:31:00;;;;;;;3.42;1.10;;;;;;;20.80;46.00;99313.09;5110873;28;20044;-59
2022/09/17 11:33:36;;;;;;;3.20;1.08;;;;;;;21.06;45.66;99312.13;5115851;28;20529;-60
2022/09/17 11:36:18;;;;;;;2.33;0.85;;;;;;;21.32;45.94;99311.97;5117760;28;20521;-59
2022/09/17 11:38:52;;;;;;;3.72;0.75;;;;;;;21.69;45.61;99311.56;5116224;28;20048;-60
2022/09/17 11:41:39;;;;;;;3.58;0.88;;;;;;;22.05;44.63;99315.66;5117781;28;20121;-62
2022/09/17 11:44:23;;;;;;;2.30;0.85;;;;;;;22.44;44.81;99314.81;5116461;28;20130;-61
2022/09/17 11:47:04;;;;;;;2.65;0.90;;;;;;;22.81;42.79;99322.31;5116299;28;20499;-60
2022/09/17 11:49:38;;;;;;;2.30;0.80;;;;;;;22.98;41.68;99328.38;5117467;28;20436;-61
2022/09/17 11:52:13;;;;;;;3.05;0.70;;;;;;;22.90;41.49;99340.03;5117721;28;20079;-60
2022/09/17 11:54:49;;;;;;;2.20;0.80;;;;;;;22.63;41.03;99339.53;5117718;28;20089;-59
2022/09/17 11:57:20;;;;;;;1.73;0.80;;;;;;;22.36;41.99;99339.00;5116354;28;20134;-59
2022/09/17 12:00:01;;;;;;;3.00;0.85;;;;;;;22.17;43.35;99334.88;5116173;28;20052;-59
2022/09/17 12:02:53;;;;;;;2.28;1.00;;;;;;;22.21;44.68;99331.66;5118013;28;20087;-60
2022/09/17 12:05:25;;;;;;;2.10;0.55;;;;;;;22.52;45.36;99328.19;5117590;28;20552;-60
2022/09/17 12:07:58;;;;;;;2.30;0.90;;;;;;;22.94;45.28;99313.69;5117394;28;20055;-61